createdAt,value
2022-10-17T00:00:35.629Z,98733.75
2022-10-17T00:03:02.403Z,98733.00
2022-10-17T00:05:29.217Z,98748.19
2022-10-17T00:07:55.898Z,98734.53
2022-10-17T00:10:22.708Z,98752.38
2022-10-17T00:12:51.170Z,98748.63
2022-10-17T00:15:20.179Z,98756.66
2022-10-17T00:17:47.290Z,98757.03
2022-10-17T00:20:15.682Z,98761.78
2022-10-17T00:22:43.086Z,98766.69
2022-10-17T00:25:11.119Z,98745.06
2022-10-17T00:27:40.148Z,98761.34
2022-10-17T00:30:10.065Z,98756.56
2022-10-17T00:32:36.614Z,98764.16
2022-10-17T00:35:04.452Z,98764.13
2022-10-17T00:37:31.985Z,98759.84
2022-10-17T00:39:59.354Z,98742.38
2022-10-17T00:42:27.645Z,98755.81
2022-10-17T00:44:59.494Z,98757.19
2022-10-17T00:47:26.402Z,98762.28
2022-10-17T00:49:53.135Z,98763.66
2022-10-17T00:52:23.868Z,98762.94
2022-10-17T00:55:13.569Z,98765.25
2022-10-17T00:57:42.331Z,98761.84
2022-10-17T01:00:10.743Z,98763.66
2022-10-17T01:02:38.078Z,98771.06
2022-10-17T01:05:06.197Z,98767.59
2022-10-17T01:07:37.284Z,98769.66
2022-10-17T01:10:06.355Z,98768.47
2022-10-17T01:12:54.065Z,98766.16
2022-10-17T01:15:23.776Z,98771.44
2022-10-17T01:17:50.267Z,98774.31
2022-10-17T01:20:54.400Z,98768.63
2022-10-17T01:23:23.658Z,98765.38
2022-10-17T01:26:28.831Z,98770.69
2022-10-17T01:29:14.123Z,98766.75
2022-10-17T01:31:48.800Z,98767.84
2022-10-17T01:34:28.254Z,98780.06
2022-10-17T01:37:12.005Z,98774.19
2022-10-17T01:39:48.874Z,98777.72
2022-10-17T01:42:30.794Z,98782.22
2022-10-17T01:45:21.316Z,98780.22
2022-10-17T01:47:51.553Z,98776.16
2022-10-17T01:50:29.218Z,98777.78
2022-10-17T01:53:02.058Z,98779.88
2022-10-17T01:55:42.460Z,98776.16
2022-10-17T01:58:19.531Z,98775.97
2022-10-17T02:00:47.808Z,98778.19
2022-10-17T02:03:18.826Z,98774.16
2022-10-17T02:05:46.093Z,98779.78
2022-10-17T02:08:13.339Z,98777.13
2022-10-17T02:11:03.442Z,98787.53
2022-10-17T02:13:39.266Z,98793.59
2022-10-17T02:16:05.871Z,98798.25
2022-10-17T02:19:01.221Z,98784.22
2022-10-17T02:21:43.371Z,98794.47
2022-10-17T02:24:27.933Z,98794.38
2022-10-17T02:27:13.577Z,98782.69
2022-10-17T02:29:50.117Z,98791.34
2022-10-17T02:32:34.882Z,98751.69
2022-10-17T02:35:04.521Z,98786.56
2022-10-17T02:37:32.442Z,98790.88
2022-10-17T02:40:01.898Z,98788.22
2022-10-17T02:42:30.539Z,98784.09
2022-10-17T02:45:01.634Z,98792.81
2022-10-17T02:47:35.274Z,98757.59
2022-10-17T02:50:02.628Z,98769.66
2022-10-17T02:53:01.261Z,98792.16
2022-10-17T02:55:34.025Z,98790.28
2022-10-17T02:58:12.152Z,98795.53
2022-10-17T03:00:40.959Z,98789.97
2022-10-17T03:03:30.457Z,98792.50
2022-10-17T03:06:00.932Z,98791.25
2022-10-17T03:08:27.629Z,98796.09
2022-10-17T03:10:55.694Z,98797.16
2022-10-17T03:13:22.915Z,98802.94
2022-10-17T03:15:49.889Z,98800.88
2022-10-17T03:18:17.272Z,98804.59
2022-10-17T03:20:45.001Z,98796.72
2022-10-17T03:23:11.529Z,98807.31
2022-10-17T03:25:38.396Z,98805.88
2022-10-17T03:28:05.583Z,98802.22
2022-10-17T03:30:32.894Z,98818.28
2022-10-17T03:33:00.211Z,98807.44
2022-10-17T03:35:27.405Z,98814.75
2022-10-17T03:37:55.813Z,98803.72
2022-10-17T03:40:23.704Z,98804.22
2022-10-17T03:42:50.707Z,98810.78
2022-10-17T03:45:17.348Z,98801.00
2022-10-17T03:47:45.414Z,98801.66
2022-10-17T03:50:12.094Z,98799.63
2022-10-17T03:52:39.542Z,98799.00
2022-10-17T03:55:06.422Z,98809.38
2022-10-17T03:57:35.222Z,98804.34
2022-10-17T04:00:02.369Z,98808.06
2022-10-17T04:02:29.979Z,98807.44
2022-10-17T04:04:57.504Z,98808.25
2022-10-17T04:07:24.056Z,98805.84
2022-10-17T04:09:50.644Z,98815.22
2022-10-17T04:12:19.432Z,98812.78
2022-10-17T04:14:46.419Z,98816.00
2022-10-17T04:17:13.997Z,98769.31
2022-10-17T04:19:40.667Z,98807.44
2022-10-17T04:22:07.215Z,98807.00
2022-10-17T04:24:36.310Z,98807.44
2022-10-17T04:27:05.863Z,98809.88
2022-10-17T04:29:36.212Z,98811.28
2022-10-17T04:32:24.186Z,98816.59
2022-10-17T04:35:03.994Z,98815.75
2022-10-17T04:37:31.967Z,98823.50
2022-10-17T04:40:01.564Z,98822.06
2022-10-17T04:42:31.797Z,98823.69
2022-10-17T04:44:59.161Z,98824.69
2022-10-17T04:47:26.712Z,98822.22
2022-10-17T04:49:53.298Z,98824.69
2022-10-17T04:52:21.865Z,98825.91
2022-10-17T04:54:49.989Z,98822.97
2022-10-17T04:57:18.018Z,98824.63
2022-10-17T04:59:53.611Z,98828.53
2022-10-17T05:02:30.440Z,98830.28
2022-10-17T05:04:57.514Z,98841.50
2022-10-17T05:07:24.090Z,98840.13
2022-10-17T05:10:00.112Z,98847.69
2022-10-17T05:12:27.074Z,98849.06
2022-10-17T05:14:54.106Z,98849.50
2022-10-17T05:17:22.282Z,98849.06
2022-10-17T05:19:49.420Z,98858.72
2022-10-17T05:22:16.878Z,98854.31
2022-10-17T05:24:43.679Z,98855.75
2022-10-17T05:27:10.965Z,98854.78
2022-10-17T05:29:37.544Z,98849.91
2022-10-17T05:32:11.316Z,98854.59
2022-10-17T05:34:38.035Z,98857.41
2022-10-17T05:37:04.924Z,98848.66
2022-10-17T05:39:32.581Z,98854.59
2022-10-17T05:41:59.831Z,98862.72
2022-10-17T05:44:26.763Z,98849.75
2022-10-17T05:46:56.501Z,98845.06
2022-10-17T05:49:39.744Z,98853.47
2022-10-17T05:52:10.171Z,98853.84
2022-10-17T05:54:50.612Z,98853.19
2022-10-17T05:57:17.344Z,98846.22
2022-10-17T05:59:43.993Z,98846.06
2022-10-17T06:02:13.397Z,98843.69
2022-10-17T06:04:40.556Z,98850.25
2022-10-17T06:07:07.237Z,98856.00
2022-10-17T06:09:34.425Z,98861.72
2022-10-17T06:12:02.118Z,98866.59
2022-10-17T06:14:29.789Z,98873.69
2022-10-17T06:17:00.623Z,98875.97
2022-10-17T06:19:27.372Z,98872.38
2022-10-17T06:21:53.871Z,98876.47
2022-10-17T06:24:22.614Z,98876.97
2022-10-17T06:26:51.654Z,98885.91
2022-10-17T06:29:20.238Z,98882.53
2022-10-17T06:31:50.046Z,98882.81
2022-10-17T06:34:17.245Z,98884.47
2022-10-17T06:36:44.764Z,98897.72
2022-10-17T06:39:11.787Z,98881.66
2022-10-17T06:41:55.495Z,98897.78
2022-10-17T06:44:35.534Z,98902.94
2022-10-17T06:47:22.459Z,98900.66
2022-10-17T06:49:51.525Z,98908.53
2022-10-17T06:52:43.008Z,98913.38
2022-10-17T06:55:32.502Z,98915.53
2022-10-17T06:58:21.358Z,98913.16
2022-10-17T07:01:13.319Z,98930.19
2022-10-17T07:03:41.067Z,98928.84
2022-10-17T07:06:09.101Z,98921.09
2022-10-17T07:08:35.694Z,98921.19
2022-10-17T07:11:15.012Z,98927.34
2022-10-17T07:13:42.700Z,98893.16
2022-10-17T07:16:09.905Z,98928.09
2022-10-17T07:18:38.459Z,98899.28
2022-10-17T07:21:06.985Z,98906.72
2022-10-17T07:23:35.934Z,98879.31
2022-10-17T07:26:05.998Z,98921.91
2022-10-17T07:28:37.440Z,98922.97
2022-10-17T07:31:15.921Z,98930.75
2022-10-17T07:33:43.258Z,98896.56
2022-10-17T07:36:10.334Z,98939.53
2022-10-17T07:38:37.184Z,98940.75
2022-10-17T07:41:07.390Z,98928.91
2022-10-17T07:43:34.989Z,98937.06
2022-10-17T07:46:02.960Z,98936.06
2022-10-17T07:48:30.159Z,98932.56
2022-10-17T07:50:57.028Z,98914.34
2022-10-17T07:53:23.993Z,98889.19
2022-10-17T07:55:50.594Z,98931.34
2022-10-17T07:58:17.244Z,98934.41
2022-10-17T08:00:44.024Z,98931.34
2022-10-17T08:03:11.004Z,98887.97
2022-10-17T08:05:37.510Z,98927.41
2022-10-17T08:08:04.357Z,98921.88
2022-10-17T08:10:30.878Z,98928.00
2022-10-17T08:12:58.582Z,98919.72
2022-10-17T08:15:29.386Z,98902.13
2022-10-17T08:17:58.881Z,98929.84
2022-10-17T08:20:25.678Z,98925.69
2022-10-17T08:22:55.783Z,98923.03
2022-10-17T08:25:22.960Z,98914.50
2022-10-17T08:27:50.175Z,98920.53
2022-10-17T08:30:17.714Z,98935.28
2022-10-17T08:32:44.924Z,98928.75
2022-10-17T08:35:11.875Z,98921.44
2022-10-17T08:37:41.599Z,98924.69
2022-10-17T08:40:19.358Z,98928.00
2022-10-17T08:43:07.162Z,98927.22
2022-10-17T08:45:40.407Z,98924.91
2022-10-17T08:48:14.968Z,98926.72
2022-10-17T08:50:56.573Z,98922.44
2022-10-17T08:53:32.015Z,98921.72
2022-10-17T08:56:07.258Z,98919.72
2022-10-17T08:58:38.356Z,98926.09
2022-10-17T09:01:09.029Z,98923.91
2022-10-17T09:04:05.659Z,98918.53
2022-10-17T09:06:37.488Z,98917.97
2022-10-17T09:09:31.600Z,98908.22
2022-10-17T09:11:58.263Z,98906.81
2022-10-17T09:14:46.668Z,98913.69
2022-10-17T09:17:41.106Z,98911.13
2022-10-17T09:20:20.828Z,98908.44
2022-10-17T09:25:29.908Z,98903.53
2022-10-17T09:28:06.361Z,98897.16
2022-10-17T09:30:46.434Z,98896.66
2022-10-17T09:33:34.642Z,98906.41
2022-10-17T09:36:13.228Z,98908.28
2022-10-17T09:38:43.487Z,98903.69
2022-10-17T09:41:45.494Z,98875.06
2022-10-17T09:44:18.283Z,98908.72
2022-10-17T09:47:14.556Z,98904.63
2022-10-17T09:49:44.025Z,98906.47
2022-10-17T09:52:27.978Z,98904.84
2022-10-17T09:55:04.120Z,98897.94
2022-10-17T09:57:53.711Z,98854.91
2022-10-17T10:00:27.001Z,98891.59
2022-10-17T10:03:18.200Z,98898.66
2022-10-17T10:06:03.522Z,98893.97
2022-10-17T10:08:36.060Z,98890.00
2022-10-17T10:11:13.855Z,98883.56
2022-10-17T10:13:42.409Z,98895.91
2022-10-17T10:16:16.900Z,98895.19
2022-10-17T10:18:45.481Z,98894.88
2022-10-17T10:21:19.385Z,98898.94
2022-10-17T10:24:09.211Z,98907.41
2022-10-17T10:26:40.279Z,98910.41
2022-10-17T10:29:19.469Z,98904.91
2022-10-17T10:31:47.127Z,98914.06
2022-10-17T10:34:19.809Z,98912.00
2022-10-17T10:36:52.036Z,98927.16
2022-10-17T10:39:33.272Z,98921.66
2022-10-17T10:42:02.628Z,98928.69
2022-10-17T10:44:31.976Z,98916.75
2022-10-17T10:47:21.609Z,98923.03
2022-10-17T10:49:51.655Z,98924.91
2022-10-17T10:52:33.968Z,98918.34
2022-10-17T10:55:15.876Z,98919.59
2022-10-17T10:57:45.698Z,98928.09
2022-10-17T11:00:21.363Z,98924.47
2022-10-17T11:02:57.102Z,98919.44
2022-10-17T11:05:48.172Z,98918.34
2022-10-17T11:08:34.004Z,98926.34
2022-10-17T11:11:14.139Z,98926.81
2022-10-17T11:13:49.543Z,98927.59
2022-10-17T11:16:29.450Z,98919.53
2022-10-17T11:19:21.429Z,98920.47
2022-10-17T11:22:04.988Z,98927.72
2022-10-17T11:24:40.105Z,98932.16
2022-10-17T11:27:07.964Z,98921.41
2022-10-17T11:29:37.523Z,98917.06
2022-10-17T11:32:11.811Z,98913.81
2022-10-17T11:34:46.444Z,98913.44
2022-10-17T11:37:22.842Z,98902.31
2022-10-17T11:40:18.088Z,98921.19
2022-10-17T11:42:59.940Z,98912.88
2022-10-17T11:45:30.793Z,98919.44
2022-10-17T11:48:06.728Z,98913.34
2022-10-17T11:53:37.517Z,98918.56
2022-10-17T11:56:04.351Z,98917.63
2022-10-17T11:58:42.027Z,98913.06
2022-10-17T12:01:11.501Z,98904.91
2022-10-17T12:03:41.321Z,98902.50
2022-10-17T12:06:38.699Z,98906.81
2022-10-17T12:09:15.506Z,98911.81
2022-10-17T12:11:59.910Z,98912.41
2022-10-17T12:14:45.843Z,98898.72
2022-10-17T12:17:29.642Z,98904.59
2022-10-17T12:20:21.599Z,98905.09
2022-10-17T12:22:50.003Z,98895.66
2022-10-17T12:25:20.907Z,98898.72
2022-10-17T12:27:49.657Z,98894.31
2022-10-17T12:30:27.046Z,98915.44
2022-10-17T12:33:17.400Z,98899.28
2022-10-17T12:35:44.082Z,98908.97
2022-10-17T12:38:19.547Z,98902.16
2022-10-17T12:40:49.167Z,98908.72
2022-10-17T12:43:15.711Z,98910.41
2022-10-17T12:46:01.963Z,98900.75
2022-10-17T12:48:34.637Z,98905.38
2022-10-17T12:51:35.299Z,98899.69
2022-10-17T12:54:00.091Z,98903.31
2022-10-17T12:56:38.093Z,98904.72
2022-10-17T12:59:22.018Z,98897.75
2022-10-17T13:02:01.998Z,98896.97
2022-10-17T13:04:30.513Z,98899.38
2022-10-17T13:06:59.007Z,98902.31
2022-10-17T13:09:52.168Z,98908.81
2022-10-17T13:12:25.361Z,98908.91
2022-10-17T13:14:53.991Z,98899.41
2022-10-17T13:17:26.813Z,98899.94
2022-10-17T13:19:54.215Z,98900.56
2022-10-17T13:22:29.395Z,98902.09
2022-10-17T13:25:28.447Z,98915.28
2022-10-17T13:28:07.730Z,98883.19
2022-10-17T13:30:36.359Z,98924.50
2022-10-17T13:33:03.311Z,98880.72
2022-10-17T13:35:58.772Z,98907.25
2022-10-17T13:38:26.299Z,98898.34
2022-10-17T13:41:01.342Z,98904.28
2022-10-17T13:43:31.073Z,98917.47
2022-10-17T13:46:13.746Z,98915.28
2022-10-17T13:48:48.515Z,98911.53
2022-10-17T13:51:15.031Z,98920.38
2022-10-17T13:53:41.825Z,98921.06
2022-10-17T13:56:28.420Z,98931.09
2022-10-17T13:58:58.890Z,98900.59
2022-10-17T14:01:28.025Z,98916.94
2022-10-17T14:04:07.942Z,98919.31
2022-10-17T14:06:45.028Z,98921.50
2022-10-17T14:09:25.368Z,98913.34
2022-10-17T14:12:07.432Z,98926.31
2022-10-17T14:14:46.398Z,98910.81
2022-10-17T14:17:26.663Z,98929.16
2022-10-17T14:20:14.180Z,98900.44
2022-10-17T14:22:47.276Z,98920.94
2022-10-17T14:25:38.359Z,98875.66
2022-10-17T14:28:11.180Z,98917.19
2022-10-17T14:30:59.106Z,98923.06
2022-10-17T14:33:30.961Z,98921.56
2022-10-17T14:35:59.638Z,98916.31
2022-10-17T14:38:28.003Z,98913.84
2022-10-17T14:41:23.566Z,98866.50
2022-10-17T14:43:56.983Z,98918.47
2022-10-17T14:46:24.603Z,98912.25
2022-10-17T14:48:53.947Z,98921.53
2022-10-17T14:51:21.002Z,98928.38
2022-10-17T14:54:19.221Z,98918.97
2022-10-17T14:56:51.364Z,98918.91
2022-10-17T14:59:25.603Z,98924.34
2022-10-17T15:02:02.950Z,98920.41
2022-10-17T15:04:29.448Z,98934.13
2022-10-17T15:06:56.075Z,98938.84
2022-10-17T15:09:22.705Z,98940.66
2022-10-17T15:11:49.465Z,98948.22
2022-10-17T15:14:15.987Z,98954.19
2022-10-17T15:16:42.652Z,98951.03
2022-10-17T15:19:10.220Z,98958.16
2022-10-17T15:21:41.929Z,98957.44
2022-10-17T15:24:11.607Z,98958.25
2022-10-17T15:26:38.179Z,98962.13
2022-10-17T15:29:04.880Z,98960.53
2022-10-17T15:31:31.688Z,98962.72
2022-10-17T15:33:58.227Z,98970.28
2022-10-17T15:36:26.706Z,98961.78
2022-10-17T15:38:56.488Z,98967.25
2022-10-17T15:41:26.064Z,98865.69
2022-10-17T15:43:52.942Z,98978.94
2022-10-17T15:46:22.859Z,98973.81
2022-10-17T15:48:50.124Z,98976.00
2022-10-17T15:51:17.325Z,98981.84
2022-10-17T15:53:44.154Z,98976.66
2022-10-17T15:56:41.141Z,98978.78
2022-10-17T15:59:17.142Z,98974.63
2022-10-17T16:01:44.492Z,98979.63
2022-10-17T16:04:12.640Z,98980.09
2022-10-17T16:06:39.633Z,98986.09
2022-10-17T16:09:06.150Z,98992.06
2022-10-17T16:11:36.123Z,98994.88
2022-10-17T16:14:05.776Z,98951.91
2022-10-17T16:16:32.542Z,99002.19
2022-10-17T16:18:59.064Z,99007.13
2022-10-17T16:24:01.269Z,99007.13
2022-10-17T16:26:28.860Z,99006.53
2022-10-17T16:28:55.666Z,99022.97
2022-10-17T16:31:28.904Z,99029.00
2022-10-17T16:33:57.472Z,99033.88
2022-10-17T16:36:24.379Z,99036.34
2022-10-17T16:38:51.576Z,99014.38
2022-10-17T16:41:25.038Z,99043.31
2022-10-17T16:43:54.515Z,99016.94
2022-10-17T16:46:21.838Z,99058.16
2022-10-17T16:48:49.026Z,99060.25
2022-10-17T16:51:18.419Z,99067.50
2022-10-17T16:53:46.568Z,99070.09
2022-10-17T16:56:15.983Z,99063.50
2022-10-17T16:58:42.797Z,99061.19
2022-10-17T17:01:12.575Z,99072.19
2022-10-17T17:03:42.249Z,99076.06
2022-10-17T17:06:12.683Z,99076.19
2022-10-17T17:08:39.607Z,99077.25
2022-10-17T17:11:07.716Z,99017.00
2022-10-17T17:13:34.791Z,99077.03
2022-10-17T17:16:28.590Z,99075.38
2022-10-17T17:19:01.631Z,99074.81
2022-10-17T17:21:30.187Z,99073.50
2022-10-17T17:23:58.738Z,99080.28
2022-10-17T17:26:27.901Z,99080.72
2022-10-17T17:28:56.692Z,99073.97
2022-10-17T17:31:25.703Z,99083.16
2022-10-17T17:33:53.340Z,99086.66
2022-10-17T17:36:23.014Z,99087.13
2022-10-17T17:38:51.149Z,99051.75
2022-10-17T17:41:19.836Z,99094.50
2022-10-17T17:43:47.682Z,99098.81
2022-10-17T17:46:17.265Z,99094.59
2022-10-17T17:48:46.402Z,99107.97
2022-10-17T17:51:16.170Z,99103.47
2022-10-17T17:53:42.976Z,99106.81
2022-10-17T17:56:18.539Z,99111.97
2022-10-17T17:58:46.921Z,99084.63
2022-10-17T18:01:19.204Z,99102.97
2022-10-17T18:03:47.059Z,99113.25
2022-10-17T18:06:14.007Z,99119.16
2022-10-17T18:08:44.929Z,99137.91
2022-10-17T18:11:12.291Z,99123.47
2022-10-17T18:13:39.494Z,99104.91
2022-10-17T18:16:07.053Z,99132.09
2022-10-17T18:18:33.660Z,99136.13
2022-10-17T18:21:01.484Z,99136.03
2022-10-17T18:23:28.207Z,99134.03
2022-10-17T18:25:56.974Z,99134.63
2022-10-17T18:28:24.355Z,99133.59
2022-10-17T18:30:51.163Z,99131.09
2022-10-17T18:33:18.097Z,99138.00
2022-10-17T18:35:44.841Z,99142.91
2022-10-17T18:38:11.544Z,99145.81
2022-10-17T18:40:38.557Z,99143.28
2022-10-17T18:43:06.907Z,99143.66
2022-10-17T18:45:33.641Z,99143.06
2022-10-17T18:48:00.296Z,99145.00
2022-10-17T18:50:26.929Z,99152.16
2022-10-17T18:52:53.689Z,99143.66
2022-10-17T18:55:20.301Z,99155.38
2022-10-17T18:57:47.893Z,99157.03
2022-10-17T19:00:15.255Z,99144.47
2022-10-17T19:02:42.553Z,99152.53
2022-10-17T19:05:09.293Z,99156.41
2022-10-17T19:07:35.931Z,99151.25
2022-10-17T19:10:02.719Z,99160.38
2022-10-17T19:12:29.353Z,99152.44
2022-10-17T19:14:55.903Z,99164.94
2022-10-17T19:17:22.586Z,99168.81
2022-10-17T19:19:49.180Z,99165.41
2022-10-17T19:22:16.003Z,99171.81
2022-10-17T19:24:42.578Z,99175.59
2022-10-17T19:27:09.149Z,99171.94
2022-10-17T19:29:35.670Z,99174.13
2022-10-17T19:32:02.398Z,99169.56
2022-10-17T19:34:29.584Z,99167.53
2022-10-17T19:36:56.165Z,99167.53
2022-10-17T19:39:24.279Z,99175.94
2022-10-17T19:41:51.821Z,99173.91
2022-10-17T19:44:18.626Z,99181.47
2022-10-17T19:46:45.592Z,99175.06
2022-10-17T19:49:12.868Z,99179.09
2022-10-17T19:51:39.691Z,99152.69
2022-10-17T19:54:06.320Z,99172.75
2022-10-17T19:56:35.513Z,99183.22
2022-10-17T19:59:02.240Z,99174.59
2022-10-17T20:01:32.061Z,99186.69
2022-10-17T20:03:58.648Z,99185.19
2022-10-17T20:06:25.970Z,99170.84
2022-10-17T20:08:52.839Z,99200.34
2022-10-17T20:11:27.107Z,99194.19
2022-10-17T20:13:55.611Z,99187.81
2022-10-17T20:16:25.069Z,99189.47
2022-10-17T20:18:56.497Z,99189.72
2022-10-17T20:21:26.753Z,99195.66
2022-10-17T20:23:54.366Z,99147.69
2022-10-17T20:26:37.738Z,99189.25
2022-10-17T20:29:07.772Z,99187.38
2022-10-17T20:31:34.829Z,99186.00
2022-10-17T20:34:01.585Z,99183.91
2022-10-17T20:36:28.181Z,99196.63
2022-10-17T20:38:56.693Z,99202.94
2022-10-17T20:41:24.698Z,99197.88
2022-10-17T20:43:52.837Z,99202.88
2022-10-17T20:46:35.815Z,99204.88
2022-10-17T20:49:06.845Z,99208.19
2022-10-17T20:51:35.438Z,99206.97
2022-10-17T20:54:02.426Z,99201.22
2022-10-17T20:56:30.666Z,99203.25
2022-10-17T20:59:04.372Z,99205.28
2022-10-17T21:01:33.554Z,99190.13
2022-10-17T21:04:21.470Z,99193.78
2022-10-17T21:06:48.839Z,99200.75
2022-10-17T21:09:15.449Z,99204.84
2022-10-17T21:11:42.104Z,99199.31
2022-10-17T21:14:10.498Z,99213.47
2022-10-17T21:16:38.881Z,99213.06
2022-10-17T21:19:06.015Z,99208.94
2022-10-17T21:21:36.284Z,99204.66
2022-10-17T21:24:05.852Z,99204.03
2022-10-17T21:26:34.212Z,99199.97
2022-10-17T21:29:00.816Z,99204.66
2022-10-17T21:31:28.046Z,99169.25
2022-10-17T21:33:59.387Z,99213.06
2022-10-17T21:36:27.898Z,99202.81
2022-10-17T21:38:56.962Z,99214.75
2022-10-17T21:41:28.647Z,99202.41
2022-10-17T21:43:58.273Z,99207.38
2022-10-17T21:46:25.496Z,99202.41
2022-10-17T21:48:53.100Z,99205.28
2022-10-17T21:51:25.132Z,99202.84
2022-10-17T21:53:54.623Z,99208.59
2022-10-17T21:56:23.525Z,99211.03
2022-10-17T21:58:51.211Z,99198.72
2022-10-17T22:01:27.213Z,99214.72
2022-10-17T22:03:56.856Z,99218.22
2022-10-17T22:06:39.231Z,99210.66
2022-10-17T22:09:17.040Z,99209.84
2022-10-17T22:11:56.734Z,99175.63
2022-10-17T22:14:27.486Z,99210.66
2022-10-17T22:16:54.827Z,99206.56
2022-10-17T22:19:25.187Z,99214.75
2022-10-17T22:21:52.239Z,99210.66
2022-10-17T22:26:48.085Z,99215.97
2022-10-17T22:29:15.475Z,99204.09
2022-10-17T22:31:42.647Z,99181.72
2022-10-17T22:34:11.998Z,99214.91
2022-10-17T22:36:38.628Z,99217.16
2022-10-17T22:39:05.181Z,99220.44
2022-10-17T22:41:31.872Z,99206.91
2022-10-17T22:43:58.411Z,99218.16
2022-10-17T22:46:25.475Z,99220.00
2022-10-17T22:48:51.975Z,99211.59
2022-10-17T22:51:18.807Z,99218.00
2022-10-17T22:53:45.384Z,99212.84
2022-10-17T22:56:17.332Z,99209.34
2022-10-17T22:58:44.536Z,99208.19
2022-10-17T23:01:17.726Z,99220.06
2022-10-17T23:03:44.574Z,99215.13
2022-10-17T23:06:11.575Z,99219.22
2022-10-17T23:08:38.754Z,99217.75
2022-10-17T23:11:06.208Z,99211.00
2022-10-17T23:13:33.026Z,99219.41
2022-10-17T23:15:59.795Z,99208.75
2022-10-17T23:18:26.601Z,99187.03
2022-10-17T23:20:53.565Z,99201.94
2022-10-17T23:23:20.740Z,99207.22
2022-10-17T23:25:47.322Z,99204.75
2022-10-17T23:28:14.160Z,99206.44
2022-10-17T23:30:41.099Z,99203.56
2022-10-17T23:33:08.067Z,99203.00
2022-10-17T23:35:35.516Z,99177.00
2022-10-17T23:38:02.186Z,99202.16
2022-10-17T23:40:29.739Z,99209.34
2022-10-17T23:42:56.617Z,99209.56
2022-10-17T23:45:23.199Z,99212.19
2022-10-17T23:47:49.831Z,99211.78
2022-10-17T23:50:16.481Z,99216.72
2022-10-17T23:52:43.514Z,99210.97
2022-10-17T23:55:10.379Z,99205.22
2022-10-17T23:57:37.072Z,99212.19
